createdAt,value
2022-11-21T00:00:23.250Z,1759
2022-11-21T00:01:23.262Z,1759
2022-11-21T00:03:23.455Z,1436
2022-11-21T00:04:23.304Z,1737
2022-11-21T00:05:23.253Z,1399
2022-11-21T00:06:23.275Z,1373
2022-11-21T00:08:23.460Z,1363
2022-11-21T00:09:23.308Z,1505
2022-11-21T00:10:23.258Z,1480
2022-11-21T00:11:23.297Z,1430
2022-11-21T00:13:23.423Z,1430
2022-11-21T00:14:23.309Z,1353
2022-11-21T00:15:23.319Z,1671
2022-11-21T00:16:23.316Z,1626
2022-11-21T00:18:23.455Z,1322
2022-11-21T00:19:23.253Z,1229
2022-11-21T00:20:23.324Z,1201
2022-11-21T00:21:23.251Z,1201
2022-11-21T00:23:23.479Z,1528
2022-11-21T00:24:23.311Z,1291
2022-11-21T00:25:23.317Z,1565
2022-11-21T00:26:23.308Z,1532
2022-11-21T00:28:23.471Z,1307
2022-11-21T00:29:23.314Z,1401
2022-11-21T00:30:23.258Z,1388
2022-11-21T00:31:23.261Z,1396
2022-11-21T00:33:23.471Z,1717
2022-11-21T00:34:23.311Z,1561
2022-11-21T00:35:23.257Z,1266
2022-11-21T00:36:23.340Z,1275
2022-11-21T00:38:23.469Z,1275
2022-11-21T00:39:23.259Z,1476
2022-11-21T00:40:23.267Z,1859
2022-11-21T00:41:23.319Z,1476
2022-11-21T00:43:23.460Z,1797
2022-11-21T00:44:23.290Z,1745
2022-11-21T00:45:24.573Z,1432
2022-11-21T00:46:23.328Z,1717
2022-11-21T00:48:23.480Z,1777
2022-11-21T00:49:23.268Z,1688
2022-11-21T00:50:23.322Z,1692
2022-11-21T00:51:23.327Z,1366
2022-11-21T00:53:23.467Z,1340
2022-11-21T00:54:23.271Z,1588
2022-11-21T00:55:23.318Z,1638
2022-11-21T00:56:23.326Z,1285
2022-11-21T00:58:23.468Z,1291
2022-11-21T00:59:23.269Z,1242
2022-11-21T01:00:23.319Z,1599
2022-11-21T01:01:23.403Z,1614
2022-11-21T01:03:23.451Z,1257
2022-11-21T01:04:23.269Z,1279
2022-11-21T01:05:23.326Z,1610
2022-11-21T01:06:23.332Z,1617
2022-11-21T01:08:23.476Z,1344
2022-11-21T01:09:23.271Z,1399
2022-11-21T01:10:23.273Z,1419
2022-11-21T01:11:23.327Z,1754
2022-11-21T01:13:23.464Z,1740
2022-11-21T01:14:23.269Z,1622
2022-11-21T01:15:23.357Z,1659
2022-11-21T01:16:23.322Z,1325
2022-11-21T01:18:23.478Z,1688
2022-11-21T01:19:23.330Z,1440
2022-11-21T01:20:23.276Z,1859
2022-11-21T01:21:23.323Z,1459
2022-11-21T01:23:23.473Z,1501
2022-11-21T01:24:23.332Z,1544
2022-11-21T01:25:23.284Z,1899
2022-11-21T01:26:23.331Z,1927
2022-11-21T01:28:23.480Z,1899
2022-11-21T01:29:23.279Z,1692
2022-11-21T01:30:23.357Z,1377
2022-11-21T01:31:23.330Z,1634
2022-11-21T01:33:23.490Z,1399
2022-11-21T01:34:23.313Z,1392
2022-11-21T01:35:23.287Z,1373
2022-11-21T01:36:23.294Z,1709
2022-11-21T01:38:23.488Z,1315
2022-11-21T01:39:23.337Z,1107
2022-11-21T01:40:23.298Z,1150
2022-11-21T01:41:23.288Z,1145
2022-11-21T01:43:23.513Z,1162
2022-11-21T01:44:23.335Z,1561
2022-11-21T01:45:23.285Z,1254
2022-11-21T01:46:23.293Z,1559
2022-11-21T01:48:23.454Z,1275
2022-11-21T01:49:23.334Z,1248
2022-11-21T01:50:23.283Z,1550
2022-11-21T01:51:23.297Z,1257
2022-11-21T01:53:23.487Z,1275
2022-11-21T01:54:23.334Z,1288
2022-11-21T01:55:23.362Z,1603
2022-11-21T01:56:23.341Z,1596
2022-11-21T01:58:23.513Z,1325
2022-11-21T01:59:23.287Z,1275
2022-11-21T02:00:23.297Z,1459
2022-11-21T02:01:23.365Z,1266
2022-11-21T02:03:23.467Z,1497
2022-11-21T02:04:23.337Z,1139
2022-11-21T02:05:23.278Z,1172
2022-11-21T02:06:23.284Z,1162
2022-11-21T02:08:23.464Z,1444
2022-11-21T02:09:23.286Z,1235
2022-11-21T02:10:23.336Z,1275
2022-11-21T02:11:23.339Z,1603
2022-11-21T02:13:23.486Z,1528
2022-11-21T02:14:23.336Z,1088
2022-11-21T02:15:23.297Z,1105
2022-11-21T02:16:23.302Z,1103
2022-11-21T02:18:23.495Z,1147
2022-11-21T02:19:23.346Z,1239
2022-11-21T02:20:23.291Z,1142
2022-11-21T02:21:23.357Z,1570
2022-11-21T02:23:23.551Z,1248
2022-11-21T02:24:23.347Z,1083
2022-11-21T02:25:23.349Z,1315
2022-11-21T02:26:23.347Z,1098
2022-11-21T02:28:23.490Z,1061
2022-11-21T02:29:23.287Z,1338
2022-11-21T02:30:23.403Z,1381
2022-11-21T02:31:23.347Z,1127
2022-11-21T02:33:23.502Z,1153
2022-11-21T02:34:23.298Z,1227
2022-11-21T02:35:23.302Z,1528
2022-11-21T02:36:23.316Z,1550
2022-11-21T02:38:23.479Z,1588
2022-11-21T02:39:23.351Z,1159
2022-11-21T02:40:23.348Z,1440
2022-11-21T02:41:23.296Z,1440
2022-11-21T02:43:23.485Z,1175
2022-11-21T02:44:23.360Z,1319
2022-11-21T02:45:23.297Z,1103
2022-11-21T02:46:23.300Z,1363
2022-11-21T02:48:23.478Z,1124
2022-11-21T02:49:23.350Z,1384
2022-11-21T02:50:23.354Z,1169
2022-11-21T02:51:23.356Z,1432
2022-11-21T02:53:23.476Z,1422
2022-11-21T02:54:23.301Z,1103
2022-11-21T02:55:23.377Z,1338
2022-11-21T02:56:23.364Z,1315
2022-11-21T02:58:23.520Z,1113
2022-11-21T02:59:23.359Z,1027
2022-11-21T03:00:23.365Z,1279
2022-11-21T03:01:23.406Z,1288
2022-11-21T03:03:23.490Z,945
2022-11-21T03:04:23.350Z,1377
2022-11-21T03:05:23.352Z,1363
2022-11-21T03:06:23.345Z,1116
2022-11-21T03:08:23.479Z,1124
2022-11-21T03:09:23.307Z,1377
2022-11-21T03:10:23.361Z,1134
2022-11-21T03:11:23.365Z,987
2022-11-21T03:13:23.507Z,1129
2022-11-21T03:14:23.304Z,1085
2022-11-21T03:15:23.359Z,1093
2022-11-21T03:16:23.424Z,1338
2022-11-21T03:18:23.499Z,1074
2022-11-21T03:19:23.362Z,1279
2022-11-21T03:20:23.355Z,1310
2022-11-21T03:21:23.363Z,1037
2022-11-21T03:23:23.495Z,1043
2022-11-21T03:24:23.366Z,1373
2022-11-21T03:25:23.366Z,1359
2022-11-21T03:26:23.371Z,1090
2022-11-21T03:28:23.558Z,1061
2022-11-21T03:29:23.366Z,1216
2022-11-21T03:30:23.315Z,1014
2022-11-21T03:31:23.320Z,986
2022-11-21T03:33:23.502Z,1232
2022-11-21T03:34:23.400Z,1100
2022-11-21T03:35:23.369Z,1107
2022-11-21T03:36:23.365Z,1066
2022-11-21T03:38:23.500Z,1107
2022-11-21T03:39:23.370Z,1455
2022-11-21T03:40:23.325Z,1426
2022-11-21T03:41:23.327Z,1459
2022-11-21T03:43:23.525Z,1422
2022-11-21T03:44:23.374Z,972
2022-11-21T03:45:23.369Z,1257
2022-11-21T03:46:23.376Z,966
2022-11-21T03:48:23.501Z,1037
2022-11-21T03:49:23.364Z,1195
2022-11-21T03:50:23.374Z,1254
2022-11-21T03:51:23.377Z,1250
2022-11-21T03:53:23.496Z,1262
2022-11-21T03:54:23.319Z,1093
2022-11-21T03:55:23.335Z,1350
2022-11-21T03:56:23.372Z,1347
2022-11-21T03:58:23.603Z,1043
2022-11-21T03:59:23.373Z,1363
2022-11-21T04:00:23.379Z,1350
2022-11-21T04:01:23.383Z,1347
2022-11-21T04:03:23.523Z,1085
2022-11-21T04:04:23.328Z,1071
2022-11-21T04:05:23.385Z,1366
2022-11-21T04:06:23.324Z,1363
2022-11-21T04:08:23.512Z,1088
2022-11-21T04:09:23.370Z,1035
2022-11-21T04:10:23.326Z,1049
2022-11-21T04:11:23.328Z,1012
2022-11-21T04:13:23.498Z,1235
2022-11-21T04:14:23.329Z,1145
2022-11-21T04:15:23.380Z,877
2022-11-21T04:16:23.386Z,940
2022-11-21T04:18:23.509Z,950
2022-11-21T04:19:23.405Z,1159
2022-11-21T04:20:23.380Z,1063
2022-11-21T04:21:23.327Z,1350
2022-11-21T04:23:23.513Z,1063
2022-11-21T04:24:23.384Z,1223
2022-11-21T04:25:23.386Z,983
2022-11-21T04:26:23.330Z,970
2022-11-21T04:28:23.520Z,879
2022-11-21T04:29:23.384Z,1307
2022-11-21T04:30:23.410Z,1051
2022-11-21T04:31:23.329Z,1071
2022-11-21T04:33:23.514Z,987
2022-11-21T04:34:23.385Z,1294
2022-11-21T04:35:23.414Z,1049
2022-11-21T04:36:23.346Z,1272
2022-11-21T04:38:23.538Z,1282
2022-11-21T04:39:23.331Z,1037
2022-11-21T04:40:23.349Z,1049
2022-11-21T04:41:23.385Z,1059
2022-11-21T04:43:23.539Z,961
2022-11-21T04:44:23.335Z,1260
2022-11-21T04:45:23.394Z,1223
2022-11-21T04:46:23.395Z,1266
2022-11-21T04:48:23.585Z,1007
2022-11-21T04:49:23.374Z,1373
2022-11-21T04:50:23.342Z,1093
2022-11-21T04:51:23.355Z,1095
2022-11-21T04:53:23.573Z,1340
2022-11-21T04:54:23.369Z,1063
2022-11-21T04:55:23.346Z,1322
2022-11-21T04:56:23.392Z,1093
2022-11-21T04:58:23.504Z,1338
2022-11-21T04:59:23.396Z,1405
2022-11-21T05:00:24.503Z,1142
2022-11-21T05:01:23.408Z,1150
2022-11-21T05:03:23.512Z,1095
2022-11-21T05:04:23.392Z,1129
2022-11-21T05:05:23.393Z,1162
2022-11-21T05:06:23.404Z,1127
2022-11-21T05:08:23.525Z,1377
2022-11-21T05:09:23.346Z,1301
2022-11-21T05:10:23.401Z,1172
2022-11-21T05:11:23.394Z,1153
2022-11-21T05:13:23.547Z,1294
2022-11-21T05:14:23.347Z,1131
2022-11-21T05:15:24.773Z,1131
2022-11-21T05:16:23.399Z,1145
2022-11-21T05:18:23.523Z,1131
2022-11-21T05:19:23.367Z,1080
2022-11-21T05:20:23.402Z,1353
2022-11-21T05:21:23.358Z,1090
2022-11-21T05:23:23.551Z,1090
2022-11-21T05:24:23.348Z,1487
2022-11-21T05:25:23.345Z,1206
2022-11-21T05:26:23.404Z,1156
2022-11-21T05:28:23.555Z,1156
2022-11-21T05:29:27.848Z,1129
2022-11-21T05:30:23.407Z,1139
2022-11-21T05:31:23.434Z,1107
2022-11-21T05:33:23.532Z,1113
2022-11-21T05:34:23.408Z,1019
2022-11-21T05:35:23.351Z,1043
2022-11-21T05:36:23.403Z,1033
2022-11-21T05:38:23.521Z,1027
2022-11-21T05:39:23.465Z,972
2022-11-21T05:40:23.360Z,1183
2022-11-21T05:41:23.419Z,1127
2022-11-21T05:43:23.548Z,956
2022-11-21T05:44:23.408Z,955
2022-11-21T05:45:23.404Z,955
2022-11-21T05:46:23.432Z,1242
2022-11-21T05:48:23.566Z,986
2022-11-21T05:49:23.406Z,1331
2022-11-21T05:50:23.375Z,1037
2022-11-21T05:51:23.398Z,1066
2022-11-21T05:53:23.571Z,1303
2022-11-21T05:54:23.358Z,1071
2022-11-21T05:55:23.369Z,1103
2022-11-21T05:56:23.434Z,1085
2022-11-21T05:58:23.607Z,1338
2022-11-21T05:59:23.358Z,955
2022-11-21T06:00:23.404Z,1216
2022-11-21T06:01:23.357Z,1142
2022-11-21T06:03:23.588Z,1201
2022-11-21T06:04:23.413Z,1319
2022-11-21T06:05:23.415Z,1051
2022-11-21T06:06:24.931Z,1051
2022-11-21T06:08:23.573Z,1297
2022-11-21T06:09:23.418Z,1294
2022-11-21T06:10:23.441Z,1294
2022-11-21T06:11:23.448Z,1051
2022-11-21T06:13:23.584Z,1269
2022-11-21T06:14:23.366Z,1357
2022-11-21T06:15:23.375Z,1370
2022-11-21T06:16:23.414Z,1131
2022-11-21T06:18:23.542Z,1131
2022-11-21T06:19:23.366Z,1331
2022-11-21T06:20:23.417Z,1156
2022-11-21T06:21:23.425Z,1110
2022-11-21T06:23:23.576Z,1110
2022-11-21T06:24:23.366Z,1353
2022-11-21T06:25:23.390Z,1363
2022-11-21T06:26:23.419Z,1331
2022-11-21T06:28:23.603Z,1131
2022-11-21T06:29:23.417Z,1051
2022-11-21T06:30:23.433Z,1051
2022-11-21T06:31:23.396Z,1051
2022-11-21T06:33:23.544Z,1235
2022-11-21T06:34:23.370Z,1366
2022-11-21T06:35:23.420Z,1110
2022-11-21T06:36:23.380Z,1110
2022-11-21T06:38:23.560Z,1334
2022-11-21T06:39:23.424Z,1095
2022-11-21T06:40:23.420Z,1095
2022-11-21T06:41:23.453Z,1095
2022-11-21T06:43:23.563Z,1347
2022-11-21T06:44:23.446Z,1131
2022-11-21T06:45:23.371Z,1134
2022-11-21T06:46:23.417Z,1131
2022-11-21T06:48:23.572Z,1131
2022-11-21T06:49:23.379Z,1051
2022-11-21T06:50:23.428Z,1294
2022-11-21T06:51:23.377Z,1269
2022-11-21T06:53:23.555Z,1315
2022-11-21T06:54:23.428Z,1266
2022-11-21T06:55:23.434Z,1279
2022-11-21T06:56:23.440Z,1033
2022-11-21T06:58:23.571Z,1049
2022-11-21T06:59:23.378Z,969
2022-11-21T07:00:23.379Z,1257
2022-11-21T07:01:23.470Z,1019
2022-11-21T07:03:23.587Z,1033
2022-11-21T07:04:23.430Z,1279
2022-11-21T07:05:23.384Z,1040
2022-11-21T07:06:23.372Z,1049
2022-11-21T07:08:23.587Z,1325
2022-11-21T07:09:33.105Z,1033
2022-11-21T07:10:23.382Z,1301
2022-11-21T07:11:24.842Z,1288
2022-11-21T07:13:23.576Z,1297
2022-11-21T07:14:23.381Z,995
2022-11-21T07:15:23.391Z,1227
2022-11-21T07:16:23.378Z,1254
2022-11-21T07:18:23.585Z,1245
2022-11-21T07:19:23.392Z,1313
2022-11-21T07:20:23.436Z,1061
2022-11-21T07:21:23.460Z,1017
2022-11-21T07:23:23.572Z,1183
2022-11-21T07:24:23.465Z,1150
2022-11-21T07:25:23.452Z,906
2022-11-21T07:26:23.466Z,1150
2022-11-21T07:28:23.566Z,925
2022-11-21T07:29:23.440Z,869
2022-11-21T07:30:23.439Z,987
2022-11-21T07:31:23.464Z,1071
2022-11-21T07:33:23.592Z,1282
2022-11-21T07:34:23.386Z,1165
2022-11-21T07:35:23.399Z,1440
2022-11-21T07:36:23.401Z,1459
2022-11-21T07:38:23.598Z,1142
2022-11-21T07:39:23.391Z,992
2022-11-21T07:40:23.431Z,1213
2022-11-21T07:41:23.384Z,997
2022-11-21T07:43:23.641Z,1227
2022-11-21T07:44:23.447Z,911
2022-11-21T07:45:23.392Z,1127
2022-11-21T07:46:23.465Z,1100
2022-11-21T07:48:23.599Z,890
2022-11-21T07:49:23.449Z,966
2022-11-21T07:50:23.413Z,1175
2022-11-21T07:51:23.443Z,1195
2022-11-21T07:53:23.574Z,959
2022-11-21T07:54:23.458Z,1043
2022-11-21T07:55:23.454Z,776
2022-11-21T07:56:23.447Z,1030
2022-11-21T07:58:23.575Z,822
2022-11-21T07:59:23.448Z,1017
2022-11-21T08:00:23.418Z,1059
2022-11-21T08:01:23.485Z,1040
2022-11-21T08:03:23.640Z,1037
2022-11-21T08:04:23.456Z,820
2022-11-21T08:05:23.473Z,828
2022-11-21T08:06:23.459Z,997
2022-11-21T08:08:23.572Z,961
2022-11-21T08:09:23.459Z,809
2022-11-21T08:10:23.453Z,792
2022-11-21T08:11:23.407Z,800
2022-11-21T08:13:23.600Z,1004
2022-11-21T08:14:23.403Z,730
2022-11-21T08:15:23.405Z,730
2022-11-21T08:16:23.400Z,735
2022-11-21T08:18:23.592Z,906
2022-11-21T08:19:23.406Z,735
2022-11-21T08:20:23.410Z,717
2022-11-21T08:21:23.397Z,742
2022-11-21T08:23:23.603Z,919
2022-11-21T08:24:23.488Z,763
2022-11-21T08:25:23.414Z,927
2022-11-21T08:26:23.421Z,952
2022-11-21T08:29:23.402Z,714
2022-11-21T08:30:23.458Z,899
2022-11-21T08:31:23.463Z,728
2022-11-21T08:33:23.580Z,927
2022-11-21T08:34:23.453Z,652
2022-11-21T08:35:23.486Z,907
2022-11-21T08:36:23.481Z,719
2022-11-21T08:38:23.601Z,759
2022-11-21T08:39:23.461Z,796
2022-11-21T08:40:23.465Z,675
2022-11-21T08:41:23.476Z,746
2022-11-21T08:43:23.580Z,681
2022-11-21T08:44:23.419Z,925
2022-11-21T08:45:23.460Z,735
2022-11-21T08:46:23.469Z,748
2022-11-21T08:49:23.470Z,992
2022-11-21T08:50:23.469Z,796
2022-11-21T08:51:23.419Z,987
2022-11-21T08:54:23.431Z,579
2022-11-21T08:55:23.465Z,764
2022-11-21T08:56:23.475Z,668
2022-11-21T08:58:23.596Z,828
2022-11-21T08:59:23.414Z,650
2022-11-21T09:00:23.580Z,631
2022-11-21T09:01:23.425Z,832
2022-11-21T09:04:23.468Z,646
2022-11-21T09:05:23.473Z,640
2022-11-21T09:06:23.422Z,625
2022-11-21T09:09:25.469Z,776
2022-11-21T09:10:23.478Z,707
2022-11-21T09:11:23.434Z,613
2022-11-21T09:14:23.421Z,636
2022-11-21T09:15:23.440Z,794
2022-11-21T09:16:23.451Z,791
2022-11-21T09:19:23.423Z,783
2022-11-21T09:20:23.514Z,744
2022-11-21T09:21:23.422Z,772
2022-11-21T09:24:23.494Z,611
2022-11-21T09:25:23.426Z,742
2022-11-21T09:26:23.477Z,596
2022-11-21T09:29:23.425Z,719
2022-11-21T09:30:23.468Z,596
2022-11-21T09:31:23.427Z,675
2022-11-21T09:34:23.452Z,688
2022-11-21T09:35:23.429Z,698
2022-11-21T09:36:23.426Z,700
2022-11-21T09:39:23.497Z,631
2022-11-21T09:40:23.442Z,625
2022-11-21T09:41:23.478Z,560
2022-11-21T09:44:23.482Z,530
2022-11-21T09:45:23.430Z,607
2022-11-21T09:46:23.483Z,530
2022-11-21T09:49:23.492Z,613
2022-11-21T09:50:23.427Z,607
2022-11-21T09:51:23.526Z,530
2022-11-21T09:54:23.514Z,588
2022-11-21T09:55:23.494Z,493
2022-11-21T09:56:23.438Z,493
2022-11-21T09:59:23.459Z,473
2022-11-21T10:00:23.436Z,545
2022-11-21T10:01:23.542Z,560
2022-11-21T10:05:23.459Z,502
2022-11-21T10:06:23.439Z,502
2022-11-21T10:09:23.491Z,473
2022-11-21T10:10:23.498Z,505
2022-11-21T10:11:23.449Z,473
2022-11-21T10:14:23.449Z,454
2022-11-21T10:15:23.472Z,442
2022-11-21T10:16:23.449Z,423
2022-11-21T10:19:23.448Z,480
2022-11-21T10:20:23.455Z,442
2022-11-21T10:36:23.458Z,400
2022-11-21T10:40:23.467Z,498
2022-11-21T10:46:23.453Z,470
2022-11-21T11:06:23.472Z,497
2022-11-21T11:29:23.473Z,466
2022-11-21T17:22:36.139Z,496
2022-11-21T17:23:36.114Z,438
2022-11-21T17:24:36.112Z,400
2022-11-21T17:26:36.333Z,588
2022-11-21T17:27:36.135Z,519
2022-11-21T17:28:37.227Z,529
2022-11-21T17:29:36.143Z,524
2022-11-21T17:31:36.305Z,529
2022-11-21T17:32:36.116Z,533
2022-11-21T17:33:36.138Z,414
2022-11-21T17:34:36.521Z,400
2022-11-21T17:36:36.289Z,545
2022-11-21T17:37:36.116Z,477
2022-11-21T17:38:36.143Z,400
2022-11-21T17:39:36.481Z,633
2022-11-21T17:41:36.316Z,641
2022-11-21T17:42:36.143Z,591
2022-11-21T17:43:36.124Z,575
2022-11-21T17:44:36.117Z,594
2022-11-21T17:46:36.275Z,597
2022-11-21T17:47:36.121Z,553
2022-11-21T17:48:36.150Z,728
2022-11-21T17:49:36.161Z,728
2022-11-21T17:51:36.323Z,548
2022-11-21T17:52:36.124Z,505
2022-11-21T17:53:36.154Z,476
2022-11-21T17:54:36.136Z,518
2022-11-21T17:56:38.768Z,520
2022-11-21T17:57:36.128Z,478
2022-11-21T17:58:36.164Z,633
2022-11-21T17:59:36.125Z,660
2022-11-21T18:01:36.417Z,633
2022-11-21T18:02:36.199Z,487
2022-11-21T18:03:36.126Z,612
2022-11-21T18:04:36.188Z,607
2022-11-21T18:06:36.332Z,624
2022-11-21T18:07:36.190Z,545
2022-11-21T18:08:36.130Z,424
2022-11-21T18:09:36.158Z,422
2022-11-21T18:11:39.806Z,491
2022-11-21T18:12:36.159Z,574
2022-11-21T18:13:36.158Z,615
2022-11-21T18:14:36.130Z,485
2022-11-21T18:16:36.283Z,483
2022-11-21T18:17:36.128Z,637
2022-11-21T18:18:36.140Z,555
2022-11-21T18:19:36.144Z,726
2022-11-21T18:21:36.340Z,714
2022-11-21T18:22:36.131Z,659
2022-11-21T18:23:36.146Z,640
2022-11-21T18:24:36.154Z,714
2022-11-21T18:26:36.297Z,560
2022-11-21T18:27:36.132Z,787
2022-11-21T18:28:36.165Z,594
2022-11-21T18:29:37.252Z,768
2022-11-21T18:31:36.304Z,754
2022-11-21T18:32:36.142Z,607
2022-11-21T18:33:36.152Z,578
2022-11-21T18:34:36.133Z,620
2022-11-21T18:36:36.296Z,615
2022-11-21T18:37:36.141Z,566
2022-11-21T18:38:47.986Z,555
2022-11-21T18:39:36.172Z,572
2022-11-21T18:41:36.328Z,523
2022-11-21T18:42:36.145Z,615
2022-11-21T18:43:36.139Z,618
2022-11-21T18:44:36.151Z,800
2022-11-21T18:46:36.309Z,768
2022-11-21T18:47:36.037Z,615
2022-11-21T18:49:00.548Z,780
2022-11-21T18:49:36.136Z,592
2022-11-21T18:51:36.418Z,759
2022-11-21T18:52:36.187Z,641
2022-11-21T18:53:36.148Z,640
2022-11-21T18:54:36.155Z,821
2022-11-21T18:56:36.360Z,821
2022-11-21T18:57:36.173Z,597
2022-11-21T18:58:36.206Z,588
2022-11-21T18:59:36.144Z,710
2022-11-21T19:01:36.597Z,778
2022-11-21T19:02:36.175Z,714
2022-11-21T19:03:36.152Z,763
2022-11-21T19:04:36.169Z,787
2022-11-21T19:06:36.305Z,555
2022-11-21T19:07:36.238Z,763
2022-11-21T19:08:36.182Z,607
2022-11-21T19:09:36.377Z,770
2022-11-21T19:11:36.319Z,702
2022-11-21T19:12:39.398Z,640
2022-11-21T19:13:36.171Z,466
2022-11-21T19:14:36.145Z,400
2022-11-21T19:16:36.342Z,692
2022-11-21T19:17:36.155Z,668
2022-11-21T19:18:39.431Z,531
2022-11-21T19:19:36.330Z,675
2022-11-21T19:21:36.311Z,682
2022-11-21T19:22:36.146Z,742
2022-11-21T19:23:36.156Z,737
2022-11-21T19:24:36.158Z,763
2022-11-21T19:26:36.313Z,763
2022-11-21T19:27:36.180Z,530
2022-11-21T19:28:36.154Z,733
2022-11-21T19:29:36.167Z,542
2022-11-21T19:31:40.951Z,548
2022-11-21T19:32:36.196Z,759
2022-11-21T19:33:36.166Z,577
2022-11-21T19:34:36.165Z,726
2022-11-21T19:36:36.358Z,733
2022-11-21T19:37:36.159Z,577
2022-11-21T19:38:36.071Z,574
2022-11-21T19:39:36.187Z,752
2022-11-21T19:41:36.355Z,726
2022-11-21T19:42:36.161Z,540
2022-11-21T19:43:36.152Z,712
2022-11-21T19:44:36.184Z,679
2022-11-21T19:46:36.342Z,542
2022-11-21T19:47:36.158Z,740
2022-11-21T19:48:36.167Z,580
2022-11-21T19:49:36.162Z,749
2022-11-21T19:51:36.400Z,586
2022-11-21T19:52:36.165Z,686
2022-11-21T19:53:36.171Z,551
2022-11-21T19:54:36.181Z,759
2022-11-21T19:56:36.322Z,572
2022-11-21T19:57:36.193Z,730
2022-11-21T19:58:36.162Z,674
2022-11-21T19:59:36.175Z,551
2022-11-21T20:01:36.408Z,730
2022-11-21T20:02:36.194Z,735
2022-11-21T20:03:36.198Z,717
2022-11-21T20:04:36.200Z,708
2022-11-21T20:06:36.330Z,556
2022-11-21T20:07:36.146Z,577
2022-11-21T20:08:36.196Z,740
2022-11-21T20:09:36.554Z,719
2022-11-21T20:11:36.328Z,688
2022-11-21T20:12:36.196Z,678
2022-11-21T20:13:36.497Z,665
2022-11-21T20:14:36.168Z,656
2022-11-21T20:16:36.395Z,526
2022-11-21T20:17:36.171Z,682
2022-11-21T20:18:36.193Z,577
2022-11-21T20:19:36.172Z,565
2022-11-21T20:21:36.367Z,540
2022-11-21T20:22:36.170Z,555
2022-11-21T20:23:36.073Z,690
2022-11-21T20:24:41.256Z,728
2022-11-21T20:26:36.324Z,555
2022-11-21T20:27:36.081Z,668
2022-11-21T20:28:36.125Z,594
2022-11-21T20:29:36.197Z,629
2022-11-21T20:31:36.385Z,641
2022-11-21T20:32:36.240Z,526
2022-11-21T20:33:36.180Z,641
2022-11-21T20:34:36.188Z,657
2022-11-21T20:36:36.378Z,491
2022-11-21T20:37:36.187Z,517
2022-11-21T20:38:36.170Z,520
2022-11-21T20:39:36.171Z,517
2022-11-21T20:41:36.380Z,526
2022-11-21T20:42:36.094Z,523
2022-11-21T20:44:03.091Z,534
2022-11-21T20:46:36.372Z,682
2022-11-21T20:47:36.179Z,666
2022-11-21T20:48:36.206Z,531
2022-11-21T20:49:36.184Z,668
2022-11-21T20:53:51.268Z,668
2022-11-21T20:54:36.221Z,526
2022-11-21T20:56:36.425Z,682
2022-11-21T20:57:36.216Z,702
2022-11-21T20:58:36.219Z,704
2022-11-21T20:59:36.228Z,678
2022-11-21T21:01:36.486Z,646
2022-11-21T21:02:36.214Z,652
2022-11-21T21:03:36.194Z,683
2022-11-21T21:04:36.218Z,672
2022-11-21T21:06:36.375Z,656
2022-11-21T21:07:36.206Z,683
2022-11-21T21:08:36.184Z,666
2022-11-21T21:09:36.216Z,607
2022-11-21T21:11:51.296Z,656
2022-11-21T21:12:36.190Z,679
2022-11-21T21:13:36.187Z,530
2022-11-21T21:14:36.113Z,519
2022-11-21T21:16:36.397Z,526
2022-11-21T21:17:36.192Z,478
2022-11-21T21:18:36.248Z,561
2022-11-21T21:19:36.192Z,629
2022-11-21T21:21:36.349Z,614
2022-11-21T21:22:36.192Z,529
2022-11-21T21:23:36.200Z,533
2022-11-21T21:24:36.190Z,537
2022-11-21T21:26:41.692Z,540
2022-11-21T21:27:36.218Z,555
2022-11-21T21:28:36.118Z,549
2022-11-21T21:29:36.202Z,719
2022-11-21T21:31:36.389Z,493
2022-11-21T21:32:36.198Z,555
2022-11-21T21:33:36.240Z,575
2022-11-21T21:34:36.185Z,730
2022-11-21T21:36:36.385Z,757
2022-11-21T21:37:36.195Z,772
2022-11-21T21:38:36.202Z,752
2022-11-21T21:39:36.216Z,584
2022-11-21T21:41:36.422Z,596
2022-11-21T21:42:36.222Z,592
2022-11-21T21:43:36.204Z,597
2022-11-21T21:44:36.379Z,765
2022-11-21T21:46:36.426Z,770
2022-11-21T21:47:36.228Z,540
2022-11-21T21:48:36.202Z,495
2022-11-21T21:49:36.198Z,623
2022-11-21T21:51:36.396Z,674
2022-11-21T21:52:36.219Z,567
2022-11-21T21:53:36.233Z,754
2022-11-21T21:54:36.236Z,710
2022-11-21T21:56:36.404Z,740
2022-11-21T21:57:40.130Z,551
2022-11-21T21:58:36.234Z,597
2022-11-21T21:59:36.201Z,570
2022-11-21T22:01:36.420Z,732
2022-11-21T22:02:36.116Z,813
2022-11-21T22:03:36.112Z,634
2022-11-21T22:04:36.205Z,631
2022-11-21T22:06:36.362Z,810
2022-11-21T22:07:36.258Z,699
2022-11-21T22:08:36.218Z,763
2022-11-21T22:09:36.248Z,778
2022-11-21T22:11:36.404Z,549
2022-11-21T22:12:38.851Z,768
2022-11-21T22:13:36.210Z,770
2022-11-21T22:14:36.206Z,599
2022-11-21T22:16:36.377Z,596
2022-11-21T22:17:36.226Z,594
2022-11-21T22:18:36.219Z,599
2022-11-21T22:19:36.118Z,580
2022-11-21T22:21:36.408Z,592
2022-11-21T22:22:36.225Z,735
2022-11-21T22:23:36.215Z,603
2022-11-21T22:24:36.235Z,603
2022-11-21T22:26:36.408Z,602
2022-11-21T22:27:36.219Z,612
2022-11-21T22:28:36.226Z,561
2022-11-21T22:29:36.227Z,605
2022-11-21T22:31:36.366Z,783
2022-11-21T22:32:36.243Z,600
2022-11-21T22:33:36.246Z,498
2022-11-21T22:34:36.223Z,798
2022-11-21T22:36:36.422Z,603
2022-11-21T22:37:36.242Z,765
2022-11-21T22:38:36.221Z,594
2022-11-21T22:39:36.240Z,607
2022-11-21T22:41:36.379Z,800
2022-11-21T22:42:36.219Z,870
2022-11-21T22:43:36.228Z,666
2022-11-21T22:44:36.219Z,682
2022-11-21T22:46:36.424Z,895
2022-11-21T22:47:36.215Z,643
2022-11-21T22:48:36.233Z,650
2022-11-21T22:49:36.227Z,870
2022-11-21T22:51:36.424Z,660
2022-11-21T22:52:36.304Z,759
2022-11-21T22:53:40.112Z,935
2022-11-21T22:54:36.222Z,733
2022-11-21T22:56:36.446Z,954
2022-11-21T22:57:36.257Z,992
2022-11-21T22:58:36.254Z,983
2022-11-21T22:59:36.263Z,763
2022-11-21T23:01:36.430Z,1004
2022-11-21T23:02:36.229Z,981
2022-11-21T23:03:36.284Z,1029
2022-11-21T23:04:36.250Z,776
2022-11-21T23:06:36.401Z,997
2022-11-21T23:07:36.272Z,1017
2022-11-21T23:08:36.244Z,765
2022-11-21T23:09:36.230Z,1038
2022-11-21T23:11:40.576Z,1004
2022-11-21T23:12:36.229Z,785
2022-11-21T23:13:36.239Z,918
2022-11-21T23:14:36.227Z,918
2022-11-21T23:16:36.445Z,935
2022-11-21T23:17:36.140Z,728
2022-11-21T23:18:36.231Z,940
2022-11-21T23:19:36.133Z,956
2022-11-21T23:21:36.432Z,956
2022-11-21T23:22:36.228Z,961
2022-11-21T23:23:36.154Z,717
2022-11-21T23:24:36.269Z,728
2022-11-21T23:26:36.450Z,951
2022-11-21T23:27:36.237Z,728
2022-11-21T23:28:36.262Z,961
2022-11-21T23:29:36.238Z,897
2022-11-21T23:31:36.388Z,700
2022-11-21T23:32:36.260Z,990
2022-11-21T23:33:36.240Z,1004
2022-11-21T23:34:36.243Z,785
2022-11-21T23:36:36.439Z,817
2022-11-21T23:37:36.270Z,992
2022-11-21T23:38:36.268Z,995
2022-11-21T23:39:36.239Z,759
2022-11-21T23:41:36.435Z,752
2022-11-21T23:42:36.244Z,757
2022-11-21T23:43:36.239Z,768
2022-11-21T23:44:36.253Z,785
2022-11-21T23:46:36.443Z,768
2022-11-21T23:47:36.259Z,1001
2022-11-21T23:48:36.144Z,757
2022-11-21T23:49:36.254Z,995
2022-11-21T23:51:36.445Z,783
2022-11-21T23:52:36.145Z,817
2022-11-21T23:53:36.246Z,844
2022-11-21T23:54:36.196Z,836
2022-11-21T23:56:36.439Z,855
2022-11-21T23:57:36.245Z,865
2022-11-21T23:58:36.243Z,1150
2022-11-21T23:59:36.281Z,857
